sensor_id;sensor_type;location;lat;lon;timestamp;P1;durP1;ratioP1;P2;durP2;ratioP2
58681;SDS011;44460;40.162;18.294;2023-04-24T00:00:19;14.10;;;8.70;;
58681;SDS011;44460;40.162;18.294;2023-04-24T00:02:45;13.23;;;8.95;;
58681;SDS011;44460;40.162;18.294;2023-04-24T00:05:12;14.27;;;8.80;;
58681;SDS011;44460;40.162;18.294;2023-04-24T00:07:39;14.48;;;8.55;;
58681;SDS011;44460;40.162;18.294;2023-04-24T00:10:04;13.60;;;9.10;;
58681;SDS011;44460;40.162;18.294;2023-04-24T00:12:30;18.92;;;9.73;;
58681;SDS011;44460;40.162;18.294;2023-04-24T00:14:55;18.05;;;9.63;;
58681;SDS011;44460;40.162;18.294;2023-04-24T00:17:21;17.80;;;9.20;;
58681;SDS011;44460;40.162;18.294;2023-04-24T00:19:49;16.45;;;10.00;;
58681;SDS011;44460;40.162;18.294;2023-04-24T00:22:26;17.73;;;8.77;;
58681;SDS011;44460;40.162;18.294;2023-04-24T00:24:52;13.52;;;9.65;;
58681;SDS011;44460;40.162;18.294;2023-04-24T00:27:17;14.18;;;9.13;;
58681;SDS011;44460;40.162;18.294;2023-04-24T00:29:43;13.05;;;9.13;;
58681;SDS011;44460;40.162;18.294;2023-04-24T00:32:08;15.27;;;9.82;;
58681;SDS011;44460;40.162;18.294;2023-04-24T00:34:34;18.73;;;9.10;;
58681;SDS011;44460;40.162;18.294;2023-04-24T00:36:59;15.45;;;9.75;;
58681;SDS011;44460;40.162;18.294;2023-04-24T00:39:25;12.25;;;8.93;;
58681;SDS011;44460;40.162;18.294;2023-04-24T00:41:50;13.23;;;8.80;;
58681;SDS011;44460;40.162;18.294;2023-04-24T00:44:16;14.70;;;9.88;;
58681;SDS011;44460;40.162;18.294;2023-04-24T00:46:42;13.07;;;9.10;;
58681;SDS011;44460;40.162;18.294;2023-04-24T00:49:07;17.50;;;9.70;;
58681;SDS011;44460;40.162;18.294;2023-04-24T00:51:33;18.83;;;9.82;;
58681;SDS011;44460;40.162;18.294;2023-04-24T00:54:00;14.70;;;10.13;;
58681;SDS011;44460;40.162;18.294;2023-04-24T00:56:26;14.75;;;10.15;;
58681;SDS011;44460;40.162;18.294;2023-04-24T00:58:51;16.48;;;10.02;;
58681;SDS011;44460;40.162;18.294;2023-04-24T01:01:20;16.95;;;10.45;;
58681;SDS011;44460;40.162;18.294;2023-04-24T01:03:50;16.83;;;9.77;;
58681;SDS011;44460;40.162;18.294;2023-04-24T01:06:16;15.93;;;10.48;;
58681;SDS011;44460;40.162;18.294;2023-04-24T01:08:42;15.07;;;10.90;;
58681;SDS011;44460;40.162;18.294;2023-04-24T01:11:07;18.70;;;11.18;;
58681;SDS011;44460;40.162;18.294;2023-04-24T01:13:32;18.10;;;10.27;;
58681;SDS011;44460;40.162;18.294;2023-04-24T01:15:58;16.52;;;10.25;;
58681;SDS011;44460;40.162;18.294;2023-04-24T01:18:24;16.27;;;10.60;;
58681;SDS011;44460;40.162;18.294;2023-04-24T01:20:50;16.58;;;11.38;;
58681;SDS011;44460;40.162;18.294;2023-04-24T01:23:16;14.85;;;10.60;;
58681;SDS011;44460;40.162;18.294;2023-04-24T01:25:43;18.40;;;12.43;;
58681;SDS011;44460;40.162;18.294;2023-04-24T01:28:08;23.35;;;10.60;;
58681;SDS011;44460;40.162;18.294;2023-04-24T01:30:34;18.40;;;10.75;;
58681;SDS011;44460;40.162;18.294;2023-04-24T01:32:59;21.05;;;10.18;;
58681;SDS011;44460;40.162;18.294;2023-04-24T01:35:25;15.52;;;10.52;;
58681;SDS011;44460;40.162;18.294;2023-04-24T01:37:51;18.35;;;10.52;;
58681;SDS011;44460;40.162;18.294;2023-04-24T01:40:16;19.45;;;10.18;;
58681;SDS011;44460;40.162;18.294;2023-04-24T01:42:41;14.40;;;10.52;;
58681;SDS011;44460;40.162;18.294;2023-04-24T01:45:07;20.73;;;10.30;;
58681;SDS011;44460;40.162;18.294;2023-04-24T01:47:35;18.65;;;10.45;;
58681;SDS011;44460;40.162;18.294;2023-04-24T01:50:00;14.35;;;9.63;;
58681;SDS011;44460;40.162;18.294;2023-04-24T01:52:26;12.85;;;9.38;;
58681;SDS011;44460;40.162;18.294;2023-04-24T01:54:52;13.80;;;9.43;;
58681;SDS011;44460;40.162;18.294;2023-04-24T01:57:18;13.65;;;9.20;;
58681;SDS011;44460;40.162;18.294;2023-04-24T01:59:43;18.65;;;10.02;;
58681;SDS011;44460;40.162;18.294;2023-04-24T02:02:09;14.63;;;9.20;;
58681;SDS011;44460;40.162;18.294;2023-04-24T02:04:34;16.67;;;8.68;;
58681;SDS011;44460;40.162;18.294;2023-04-24T02:06:59;14.52;;;8.57;;
58681;SDS011;44460;40.162;18.294;2023-04-24T02:09:25;13.55;;;8.73;;
58681;SDS011;44460;40.162;18.294;2023-04-24T02:11:50;15.18;;;9.65;;
58681;SDS011;44460;40.162;18.294;2023-04-24T02:14:17;12.73;;;8.38;;
58681;SDS011;44460;40.162;18.294;2023-04-24T02:16:42;15.85;;;8.95;;
58681;SDS011;44460;40.162;18.294;2023-04-24T02:19:09;15.32;;;9.23;;
58681;SDS011;44460;40.162;18.294;2023-04-24T02:21:34;14.70;;;8.93;;
58681;SDS011;44460;40.162;18.294;2023-04-24T02:24:00;16.27;;;8.98;;
58681;SDS011;44460;40.162;18.294;2023-04-24T02:26:26;14.13;;;8.52;;
58681;SDS011;44460;40.162;18.294;2023-04-24T02:28:51;12.98;;;8.40;;
58681;SDS011;44460;40.162;18.294;2023-04-24T02:31:19;15.48;;;8.90;;
58681;SDS011;44460;40.162;18.294;2023-04-24T02:33:46;13.70;;;8.38;;
58681;SDS011;44460;40.162;18.294;2023-04-24T02:36:12;16.02;;;8.60;;
58681;SDS011;44460;40.162;18.294;2023-04-24T02:38:38;13.40;;;7.95;;
58681;SDS011;44460;40.162;18.294;2023-04-24T02:41:04;19.58;;;8.95;;
58681;SDS011;44460;40.162;18.294;2023-04-24T02:43:31;16.23;;;8.88;;
58681;SDS011;44460;40.162;18.294;2023-04-24T02:45:57;14.60;;;8.30;;
58681;SDS011;44460;40.162;18.294;2023-04-24T02:48:22;15.38;;;8.45;;
58681;SDS011;44460;40.162;18.294;2023-04-24T02:50:48;16.02;;;9.23;;
58681;SDS011;44460;40.162;18.294;2023-04-24T02:53:15;13.43;;;8.63;;
58681;SDS011;44460;40.162;18.294;2023-04-24T02:55:41;13.65;;;9.07;;
58681;SDS011;44460;40.162;18.294;2023-04-24T02:58:06;14.27;;;8.45;;
58681;SDS011;44460;40.162;18.294;2023-04-24T03:00:32;12.60;;;7.82;;
58681;SDS011;44460;40.162;18.294;2023-04-24T03:02:57;14.85;;;8.32;;
58681;SDS011;44460;40.162;18.294;2023-04-24T03:05:22;13.25;;;8.25;;
58681;SDS011;44460;40.162;18.294;2023-04-24T03:07:48;17.83;;;8.98;;
58681;SDS011;44460;40.162;18.294;2023-04-24T03:10:13;13.70;;;8.43;;
58681;SDS011;44460;40.162;18.294;2023-04-24T03:12:39;15.35;;;7.85;;
58681;SDS011;44460;40.162;18.294;2023-04-24T03:15:04;13.57;;;8.43;;
58681;SDS011;44460;40.162;18.294;2023-04-24T03:17:30;17.77;;;7.60;;
58681;SDS011;44460;40.162;18.294;2023-04-24T03:19:56;14.07;;;8.35;;
58681;SDS011;44460;40.162;18.294;2023-04-24T03:22:21;17.48;;;8.35;;
58681;SDS011;44460;40.162;18.294;2023-04-24T03:24:47;14.95;;;7.82;;
58681;SDS011;44460;40.162;18.294;2023-04-24T03:27:15;14.20;;;8.30;;
58681;SDS011;44460;40.162;18.294;2023-04-24T03:30:01;15.00;;;8.68;;
58681;SDS011;44460;40.162;18.294;2023-04-24T03:35:06;12.85;;;7.97;;
58681;SDS011;44460;40.162;18.294;2023-04-24T03:37:33;16.23;;;8.55;;
58681;SDS011;44460;40.162;18.294;2023-04-24T03:40:13;13.75;;;8.75;;
58681;SDS011;44460;40.162;18.294;2023-04-24T03:42:40;16.52;;;8.65;;
58681;SDS011;44460;40.162;18.294;2023-04-24T03:45:05;17.70;;;8.43;;
58681;SDS011;44460;40.162;18.294;2023-04-24T03:47:34;19.65;;;8.25;;
58681;SDS011;44460;40.162;18.294;2023-04-24T03:50:02;18.75;;;8.85;;
58681;SDS011;44460;40.162;18.294;2023-04-24T03:52:29;22.50;;;8.65;;
58681;SDS011;44460;40.162;18.294;2023-04-24T03:54:54;17.08;;;8.48;;
58681;SDS011;44460;40.162;18.294;2023-04-24T03:57:21;16.50;;;8.43;;
58681;SDS011;44460;40.162;18.294;2023-04-24T03:59:59;17.17;;;8.93;;
58681;SDS011;44460;40.162;18.294;2023-04-24T04:02:25;16.90;;;9.07;;
58681;SDS011;44460;40.162;18.294;2023-04-24T04:04:51;15.77;;;9.23;;
58681;SDS011;44460;40.162;18.294;2023-04-24T04:07:16;14.93;;;9.05;;
58681;SDS011;44460;40.162;18.294;2023-04-24T04:09:42;16.05;;;8.27;;
58681;SDS011;44460;40.162;18.294;2023-04-24T04:12:07;19.15;;;8.05;;
58681;SDS011;44460;40.162;18.294;2023-04-24T04:14:33;16.75;;;8.63;;
58681;SDS011;44460;40.162;18.294;2023-04-24T04:16:59;16.77;;;8.65;;
58681;SDS011;44460;40.162;18.294;2023-04-24T04:19:25;14.60;;;7.97;;
58681;SDS011;44460;40.162;18.294;2023-04-24T04:21:51;14.63;;;7.95;;
58681;SDS011;44460;40.162;18.294;2023-04-24T04:24:36;16.30;;;7.95;;
58681;SDS011;44460;40.162;18.294;2023-04-24T04:27:04;16.38;;;9.27;;
58681;SDS011;44460;40.162;18.294;2023-04-24T04:29:35;17.75;;;7.93;;
58681;SDS011;44460;40.162;18.294;2023-04-24T04:32:03;14.07;;;7.55;;
58681;SDS011;44460;40.162;18.294;2023-04-24T04:34:29;20.23;;;8.18;;
58681;SDS011;44460;40.162;18.294;2023-04-24T04:36:57;19.08;;;9.05;;
58681;SDS011;44460;40.162;18.294;2023-04-24T04:39:44;13.68;;;6.90;;
58681;SDS011;44460;40.162;18.294;2023-04-24T04:42:16;16.23;;;7.28;;
58681;SDS011;44460;40.162;18.294;2023-04-24T04:44:43;16.85;;;7.00;;
58681;SDS011;44460;40.162;18.294;2023-04-24T04:47:16;16.92;;;7.47;;
58681;SDS011;44460;40.162;18.294;2023-04-24T04:52:16;19.40;;;6.78;;
58681;SDS011;44460;40.162;18.294;2023-04-24T04:54:44;18.83;;;7.72;;
58681;SDS011;44460;40.162;18.294;2023-04-24T04:57:10;17.00;;;7.75;;
58681;SDS011;44460;40.162;18.294;2023-04-24T04:59:36;12.88;;;7.32;;
58681;SDS011;44460;40.162;18.294;2023-04-24T05:02:07;16.77;;;7.70;;
58681;SDS011;44460;40.162;18.294;2023-04-24T05:04:33;15.80;;;7.50;;
58681;SDS011;44460;40.162;18.294;2023-04-24T05:06:58;17.75;;;7.30;;
58681;SDS011;44460;40.162;18.294;2023-04-24T05:09:26;19.83;;;7.40;;
58681;SDS011;44460;40.162;18.294;2023-04-24T05:11:59;18.70;;;7.30;;
58681;SDS011;44460;40.162;18.294;2023-04-24T05:14:26;17.17;;;7.88;;
58681;SDS011;44460;40.162;18.294;2023-04-24T05:16:52;14.35;;;6.88;;
58681;SDS011;44460;40.162;18.294;2023-04-24T05:19:20;14.63;;;6.97;;
58681;SDS011;44460;40.162;18.294;2023-04-24T05:21:46;18.92;;;7.15;;
58681;SDS011;44460;40.162;18.294;2023-04-24T05:24:11;19.45;;;6.78;;
58681;SDS011;44460;40.162;18.294;2023-04-24T05:27:00;17.80;;;7.30;;
58681;SDS011;44460;40.162;18.294;2023-04-24T05:29:32;15.35;;;6.47;;
58681;SDS011;44460;40.162;18.294;2023-04-24T05:31:58;17.85;;;7.03;;
58681;SDS011;44460;40.162;18.294;2023-04-24T05:34:25;16.65;;;6.53;;
58681;SDS011;44460;40.162;18.294;2023-04-24T05:36:54;13.00;;;6.25;;
58681;SDS011;44460;40.162;18.294;2023-04-24T05:39:19;13.25;;;5.40;;
58681;SDS011;44460;40.162;18.294;2023-04-24T05:41:45;19.30;;;6.32;;
58681;SDS011;44460;40.162;18.294;2023-04-24T05:44:11;14.35;;;5.80;;
58681;SDS011;44460;40.162;18.294;2023-04-24T05:46:36;15.43;;;6.50;;
58681;SDS011;44460;40.162;18.294;2023-04-24T05:49:02;17.85;;;6.00;;
58681;SDS011;44460;40.162;18.294;2023-04-24T05:51:27;20.00;;;6.18;;
58681;SDS011;44460;40.162;18.294;2023-04-24T05:53:53;14.88;;;5.32;;
58681;SDS011;44460;40.162;18.294;2023-04-24T05:56:19;12.75;;;5.15;;
58681;SDS011;44460;40.162;18.294;2023-04-24T05:58:45;18.10;;;6.25;;
58681;SDS011;44460;40.162;18.294;2023-04-24T06:01:11;13.88;;;6.35;;
58681;SDS011;44460;40.162;18.294;2023-04-24T06:03:38;13.50;;;5.78;;
58681;SDS011;44460;40.162;18.294;2023-04-24T06:06:05;19.43;;;6.27;;
58681;SDS011;44460;40.162;18.294;2023-04-24T06:08:31;18.70;;;6.15;;
58681;SDS011;44460;40.162;18.294;2023-04-24T06:10:58;16.73;;;5.53;;
58681;SDS011;44460;40.162;18.294;2023-04-24T06:13:23;18.50;;;5.53;;
58681;SDS011;44460;40.162;18.294;2023-04-24T06:16:28;14.85;;;5.97;;
58681;SDS011;44460;40.162;18.294;2023-04-24T06:19:01;15.73;;;5.47;;
58681;SDS011;44460;40.162;18.294;2023-04-24T06:21:26;20.50;;;5.97;;
58681;SDS011;44460;40.162;18.294;2023-04-24T06:23:52;24.35;;;6.40;;
58681;SDS011;44460;40.162;18.294;2023-04-24T06:26:18;20.30;;;6.03;;
58681;SDS011;44460;40.162;18.294;2023-04-24T06:28:43;12.35;;;5.13;;
58681;SDS011;44460;40.162;18.294;2023-04-24T06:31:09;19.63;;;6.13;;
58681;SDS011;44460;40.162;18.294;2023-04-24T06:33:34;15.40;;;5.60;;
58681;SDS011;44460;40.162;18.294;2023-04-24T06:36:00;18.88;;;5.15;;
58681;SDS011;44460;40.162;18.294;2023-04-24T06:38:25;12.88;;;4.65;;
58681;SDS011;44460;40.162;18.294;2023-04-24T06:40:51;16.48;;;5.25;;
58681;SDS011;44460;40.162;18.294;2023-04-24T06:43:17;15.10;;;5.63;;
58681;SDS011;44460;40.162;18.294;2023-04-24T06:45:42;24.95;;;5.63;;
58681;SDS011;44460;40.162;18.294;2023-04-24T06:48:09;14.65;;;5.63;;
58681;SDS011;44460;40.162;18.294;2023-04-24T06:50:35;12.48;;;4.70;;
58681;SDS011;44460;40.162;18.294;2023-04-24T06:53:00;14.52;;;4.85;;
58681;SDS011;44460;40.162;18.294;2023-04-24T06:55:26;13.77;;;4.72;;
58681;SDS011;44460;40.162;18.294;2023-04-24T06:57:51;14.38;;;4.93;;
58681;SDS011;44460;40.162;18.294;2023-04-24T07:00:17;15.45;;;5.45;;
58681;SDS011;44460;40.162;18.294;2023-04-24T07:02:42;18.33;;;5.22;;
58681;SDS011;44460;40.162;18.294;2023-04-24T07:05:07;15.20;;;5.32;;
58681;SDS011;44460;40.162;18.294;2023-04-24T07:07:33;11.98;;;4.55;;
58681;SDS011;44460;40.162;18.294;2023-04-24T07:09:59;15.00;;;5.22;;
58681;SDS011;44460;40.162;18.294;2023-04-24T07:12:25;18.23;;;4.90;;
58681;SDS011;44460;40.162;18.294;2023-04-24T07:14:51;15.10;;;4.80;;
58681;SDS011;44460;40.162;18.294;2023-04-24T07:17:16;12.55;;;4.40;;
58681;SDS011;44460;40.162;18.294;2023-04-24T07:19:42;18.35;;;5.63;;
58681;SDS011;44460;40.162;18.294;2023-04-24T07:22:07;14.27;;;5.05;;
58681;SDS011;44460;40.162;18.294;2023-04-24T07:24:33;16.25;;;5.93;;
58681;SDS011;44460;40.162;18.294;2023-04-24T07:26:58;14.90;;;5.55;;
58681;SDS011;44460;40.162;18.294;2023-04-24T07:29:26;17.30;;;4.97;;
58681;SDS011;44460;40.162;18.294;2023-04-24T07:31:51;12.00;;;4.13;;
58681;SDS011;44460;40.162;18.294;2023-04-24T07:34:19;10.07;;;4.15;;
58681;SDS011;44460;40.162;18.294;2023-04-24T07:36:45;16.35;;;4.53;;
58681;SDS011;44460;40.162;18.294;2023-04-24T07:39:11;19.33;;;5.50;;
58681;SDS011;44460;40.162;18.294;2023-04-24T07:41:36;12.57;;;5.40;;
58681;SDS011;44460;40.162;18.294;2023-04-24T07:44:01;12.15;;;4.03;;
58681;SDS011;44460;40.162;18.294;2023-04-24T07:46:27;16.92;;;4.97;;
58681;SDS011;44460;40.162;18.294;2023-04-24T07:51:20;15.57;;;5.05;;
58681;SDS011;44460;40.162;18.294;2023-04-24T07:53:45;18.13;;;4.97;;
58681;SDS011;44460;40.162;18.294;2023-04-24T07:56:11;15.45;;;5.03;;
58681;SDS011;44460;40.162;18.294;2023-04-24T07:58:36;14.70;;;4.38;;
58681;SDS011;44460;40.162;18.294;2023-04-24T08:01:02;23.23;;;5.25;;
58681;SDS011;44460;40.162;18.294;2023-04-24T08:03:27;17.02;;;4.53;;
58681;SDS011;44460;40.162;18.294;2023-04-24T08:05:53;13.38;;;4.25;;
58681;SDS011;44460;40.162;18.294;2023-04-24T08:08:20;17.05;;;4.72;;
58681;SDS011;44460;40.162;18.294;2023-04-24T08:10:46;15.82;;;5.30;;
58681;SDS011;44460;40.162;18.294;2023-04-24T08:13:11;13.73;;;4.57;;
58681;SDS011;44460;40.162;18.294;2023-04-24T08:15:37;12.15;;;4.50;;
58681;SDS011;44460;40.162;18.294;2023-04-24T08:18:02;14.15;;;5.78;;
58681;SDS011;44460;40.162;18.294;2023-04-24T08:20:28;16.95;;;4.85;;
58681;SDS011;44460;40.162;18.294;2023-04-24T08:22:53;15.30;;;4.47;;
58681;SDS011;44460;40.162;18.294;2023-04-24T08:25:19;14.55;;;4.68;;
58681;SDS011;44460;40.162;18.294;2023-04-24T08:27:45;13.85;;;5.03;;
58681;SDS011;44460;40.162;18.294;2023-04-24T08:30:11;17.85;;;5.25;;
58681;SDS011;44460;40.162;18.294;2023-04-24T08:32:36;13.85;;;5.10;;
58681;SDS011;44460;40.162;18.294;2023-04-24T08:35:02;13.50;;;5.00;;
58681;SDS011;44460;40.162;18.294;2023-04-24T08:37:28;11.68;;;4.78;;
58681;SDS011;44460;40.162;18.294;2023-04-24T08:39:54;28.85;;;6.13;;
58681;SDS011;44460;40.162;18.294;2023-04-24T08:42:19;17.10;;;5.28;;
58681;SDS011;44460;40.162;18.294;2023-04-24T08:44:46;15.70;;;4.90;;
58681;SDS011;44460;40.162;18.294;2023-04-24T08:47:11;10.32;;;5.07;;
58681;SDS011;44460;40.162;18.294;2023-04-24T08:49:37;15.48;;;4.82;;
58681;SDS011;44460;40.162;18.294;2023-04-24T08:52:04;18.77;;;6.07;;
58681;SDS011;44460;40.162;18.294;2023-04-24T08:54:29;13.80;;;5.53;;
58681;SDS011;44460;40.162;18.294;2023-04-24T08:56:58;16.38;;;5.43;;
58681;SDS011;44460;40.162;18.294;2023-04-24T08:59:27;13.55;;;5.38;;
58681;SDS011;44460;40.162;18.294;2023-04-24T09:01:52;14.60;;;5.00;;
58681;SDS011;44460;40.162;18.294;2023-04-24T09:06:47;10.65;;;5.00;;
58681;SDS011;44460;40.162;18.294;2023-04-24T09:09:13;15.65;;;5.03;;
58681;SDS011;44460;40.162;18.294;2023-04-24T09:11:38;12.88;;;5.30;;
58681;SDS011;44460;40.162;18.294;2023-04-24T09:14:05;17.00;;;4.95;;
58681;SDS011;44460;40.162;18.294;2023-04-24T09:16:30;13.07;;;5.22;;
58681;SDS011;44460;40.162;18.294;2023-04-24T09:18:58;15.98;;;4.93;;
58681;SDS011;44460;40.162;18.294;2023-04-24T09:21:23;14.60;;;4.85;;
58681;SDS011;44460;40.162;18.294;2023-04-24T09:24:22;15.68;;;4.97;;
58681;SDS011;44460;40.162;18.294;2023-04-24T09:26:43;15.90;;;4.82;;
58681;SDS011;44460;40.162;18.294;2023-04-24T09:29:13;10.50;;;4.32;;
58681;SDS011;44460;40.162;18.294;2023-04-24T09:31:39;10.10;;;4.22;;
58681;SDS011;44460;40.162;18.294;2023-04-24T09:34:04;11.68;;;4.45;;
58681;SDS011;44460;40.162;18.294;2023-04-24T09:36:37;13.00;;;4.80;;
58681;SDS011;44460;40.162;18.294;2023-04-24T09:39:04;12.65;;;4.63;;
58681;SDS011;44460;40.162;18.294;2023-04-24T09:41:31;15.68;;;4.47;;
58681;SDS011;44460;40.162;18.294;2023-04-24T09:43:56;9.18;;;4.40;;
58681;SDS011;44460;40.162;18.294;2023-04-24T09:46:29;13.48;;;4.85;;
58681;SDS011;44460;40.162;18.294;2023-04-24T09:48:55;13.10;;;4.38;;
58681;SDS011;44460;40.162;18.294;2023-04-24T09:51:32;12.27;;;4.30;;
58681;SDS011;44460;40.162;18.294;2023-04-24T09:53:58;10.88;;;4.40;;
58681;SDS011;44460;40.162;18.294;2023-04-24T09:56:24;14.77;;;4.07;;
58681;SDS011;44460;40.162;18.294;2023-04-24T09:58:50;17.70;;;5.00;;
58681;SDS011;44460;40.162;18.294;2023-04-24T10:01:16;15.23;;;4.80;;
58681;SDS011;44460;40.162;18.294;2023-04-24T10:03:54;15.10;;;4.75;;
58681;SDS011;44460;40.162;18.294;2023-04-24T10:06:19;12.48;;;4.63;;
58681;SDS011;44460;40.162;18.294;2023-04-24T10:08:45;13.73;;;4.93;;
58681;SDS011;44460;40.162;18.294;2023-04-24T10:11:11;13.32;;;4.30;;
58681;SDS011;44460;40.162;18.294;2023-04-24T10:13:38;15.02;;;5.30;;
58681;SDS011;44460;40.162;18.294;2023-04-24T10:16:05;15.97;;;4.67;;
58681;SDS011;44460;40.162;18.294;2023-04-24T10:18:31;19.38;;;4.82;;
58681;SDS011;44460;40.162;18.294;2023-04-24T10:20:57;14.57;;;4.28;;
58681;SDS011;44460;40.162;18.294;2023-04-24T10:23:25;18.75;;;4.90;;
58681;SDS011;44460;40.162;18.294;2023-04-24T10:25:50;17.02;;;5.22;;
58681;SDS011;44460;40.162;18.294;2023-04-24T10:28:17;13.30;;;4.63;;
58681;SDS011;44460;40.162;18.294;2023-04-24T10:30:44;23.48;;;5.40;;
58681;SDS011;44460;40.162;18.294;2023-04-24T10:33:10;17.23;;;5.35;;
58681;SDS011;44460;40.162;18.294;2023-04-24T10:35:38;15.07;;;4.18;;
58681;SDS011;44460;40.162;18.294;2023-04-24T10:38:14;13.60;;;4.57;;
58681;SDS011;44460;40.162;18.294;2023-04-24T10:40:41;16.23;;;4.90;;
58681;SDS011;44460;40.162;18.294;2023-04-24T10:43:07;11.80;;;4.15;;
58681;SDS011;44460;40.162;18.294;2023-04-24T10:45:36;9.23;;;4.22;;
58681;SDS011;44460;40.162;18.294;2023-04-24T10:48:09;20.92;;;5.25;;
58681;SDS011;44460;40.162;18.294;2023-04-24T10:50:51;17.08;;;4.53;;
58681;SDS011;44460;40.162;18.294;2023-04-24T10:53:18;12.48;;;4.30;;
58681;SDS011;44460;40.162;18.294;2023-04-24T10:55:45;17.15;;;5.80;;
58681;SDS011;44460;40.162;18.294;2023-04-24T10:58:11;27.80;;;5.03;;
58681;SDS011;44460;40.162;18.294;2023-04-24T11:00:39;17.23;;;4.80;;
58681;SDS011;44460;40.162;18.294;2023-04-24T11:03:06;12.45;;;4.70;;
58681;SDS011;44460;40.162;18.294;2023-04-24T11:08:21;16.40;;;5.28;;
58681;SDS011;44460;40.162;18.294;2023-04-24T11:10:47;20.48;;;4.50;;
58681;SDS011;44460;40.162;18.294;2023-04-24T11:13:27;31.75;;;23.23;;
58681;SDS011;44460;40.162;18.294;2023-04-24T11:16:12;12.68;;;5.38;;
58681;SDS011;44460;40.162;18.294;2023-04-24T11:18:38;15.88;;;5.63;;
58681;SDS011;44460;40.162;18.294;2023-04-24T11:21:11;18.90;;;4.78;;
58681;SDS011;44460;40.162;18.294;2023-04-24T11:23:37;20.70;;;4.65;;
58681;SDS011;44460;40.162;18.294;2023-04-24T11:26:21;19.08;;;5.57;;
58681;SDS011;44460;40.162;18.294;2023-04-24T11:28:50;23.17;;;5.85;;
58681;SDS011;44460;40.162;18.294;2023-04-24T11:31:34;16.40;;;5.25;;
58681;SDS011;44460;40.162;18.294;2023-04-24T11:34:08;17.70;;;5.30;;
58681;SDS011;44460;40.162;18.294;2023-04-24T11:36:35;22.23;;;5.93;;
58681;SDS011;44460;40.162;18.294;2023-04-24T11:39:00;17.08;;;6.25;;
58681;SDS011;44460;40.162;18.294;2023-04-24T11:41:26;20.92;;;5.53;;
58681;SDS011;44460;40.162;18.294;2023-04-24T11:43:52;18.95;;;5.72;;
58681;SDS011;44460;40.162;18.294;2023-04-24T11:46:20;18.75;;;5.28;;
58681;SDS011;44460;40.162;18.294;2023-04-24T11:48:47;13.52;;;5.70;;
58681;SDS011;44460;40.162;18.294;2023-04-24T11:51:13;15.70;;;4.95;;
58681;SDS011;44460;40.162;18.294;2023-04-24T11:53:38;15.75;;;5.28;;
58681;SDS011;44460;40.162;18.294;2023-04-24T11:56:04;19.35;;;5.65;;
58681;SDS011;44460;40.162;18.294;2023-04-24T11:58:37;15.55;;;5.22;;
58681;SDS011;44460;40.162;18.294;2023-04-24T12:01:03;20.77;;;5.55;;
58681;SDS011;44460;40.162;18.294;2023-04-24T12:03:28;20.58;;;5.93;;
58681;SDS011;44460;40.162;18.294;2023-04-24T12:06:07;15.52;;;5.35;;
58681;SDS011;44460;40.162;18.294;2023-04-24T12:08:35;18.83;;;7.60;;
58681;SDS011;44460;40.162;18.294;2023-04-24T12:11:02;20.02;;;5.93;;
58681;SDS011;44460;40.162;18.294;2023-04-24T12:13:27;16.00;;;5.57;;
58681;SDS011;44460;40.162;18.294;2023-04-24T12:15:53;16.08;;;5.97;;
58681;SDS011;44460;40.162;18.294;2023-04-24T12:18:18;19.50;;;5.82;;
58681;SDS011;44460;40.162;18.294;2023-04-24T12:20:47;21.67;;;5.75;;
58681;SDS011;44460;40.162;18.294;2023-04-24T12:23:12;19.65;;;6.32;;
58681;SDS011;44460;40.162;18.294;2023-04-24T12:28:34;19.63;;;5.70;;
58681;SDS011;44460;40.162;18.294;2023-04-24T12:31:00;19.90;;;6.22;;
58681;SDS011;44460;40.162;18.294;2023-04-24T12:33:25;22.50;;;5.90;;
58681;SDS011;44460;40.162;18.294;2023-04-24T12:35:53;19.98;;;6.07;;
58681;SDS011;44460;40.162;18.294;2023-04-24T12:38:23;16.40;;;5.47;;
58681;SDS011;44460;40.162;18.294;2023-04-24T12:41:00;18.58;;;5.65;;
58681;SDS011;44460;40.162;18.294;2023-04-24T12:43:26;17.60;;;5.68;;
58681;SDS011;44460;40.162;18.294;2023-04-24T12:45:51;15.35;;;5.28;;
58681;SDS011;44460;40.162;18.294;2023-04-24T12:48:17;15.95;;;5.70;;
58681;SDS011;44460;40.162;18.294;2023-04-24T12:50:43;17.77;;;5.65;;
58681;SDS011;44460;40.162;18.294;2023-04-24T12:53:08;18.23;;;5.60;;
58681;SDS011;44460;40.162;18.294;2023-04-24T12:55:34;14.93;;;5.20;;
58681;SDS011;44460;40.162;18.294;2023-04-24T12:58:00;13.75;;;5.22;;
58681;SDS011;44460;40.162;18.294;2023-04-24T13:00:27;20.10;;;5.83;;
58681;SDS011;44460;40.162;18.294;2023-04-24T13:02:52;14.30;;;5.10;;
58681;SDS011;44460;40.162;18.294;2023-04-24T13:05:17;15.35;;;5.60;;
58681;SDS011;44460;40.162;18.294;2023-04-24T13:07:43;16.92;;;5.25;;
58681;SDS011;44460;40.162;18.294;2023-04-24T13:10:08;23.70;;;5.72;;
58681;SDS011;44460;40.162;18.294;2023-04-24T13:12:34;13.82;;;5.53;;
58681;SDS011;44460;40.162;18.294;2023-04-24T13:14:59;14.27;;;5.40;;
58681;SDS011;44460;40.162;18.294;2023-04-24T13:17:25;17.27;;;5.25;;
58681;SDS011;44460;40.162;18.294;2023-04-24T13:19:51;20.17;;;7.65;;
58681;SDS011;44460;40.162;18.294;2023-04-24T13:22:16;18.25;;;6.32;;
58681;SDS011;44460;40.162;18.294;2023-04-24T13:24:44;18.52;;;5.72;;
58681;SDS011;44460;40.162;18.294;2023-04-24T13:27:10;13.02;;;4.55;;
58681;SDS011;44460;40.162;18.294;2023-04-24T13:29:35;19.23;;;5.30;;
58681;SDS011;44460;40.162;18.294;2023-04-24T13:32:01;15.88;;;4.95;;
58681;SDS011;44460;40.162;18.294;2023-04-24T13:34:27;15.57;;;5.43;;
58681;SDS011;44460;40.162;18.294;2023-04-24T13:36:53;14.23;;;5.65;;
58681;SDS011;44460;40.162;18.294;2023-04-24T13:39:19;14.30;;;4.63;;
58681;SDS011;44460;40.162;18.294;2023-04-24T13:41:44;15.60;;;5.22;;
58681;SDS011;44460;40.162;18.294;2023-04-24T13:44:12;16.63;;;4.82;;
58681;SDS011;44460;40.162;18.294;2023-04-24T13:46:37;12.32;;;4.40;;
58681;SDS011;44460;40.162;18.294;2023-04-24T13:49:03;11.90;;;4.82;;
58681;SDS011;44460;40.162;18.294;2023-04-24T13:51:31;14.77;;;4.80;;
58681;SDS011;44460;40.162;18.294;2023-04-24T13:53:57;15.35;;;4.70;;
58681;SDS011;44460;40.162;18.294;2023-04-24T13:56:22;18.58;;;5.10;;
58681;SDS011;44460;40.162;18.294;2023-04-24T13:58:48;19.33;;;5.47;;
58681;SDS011;44460;40.162;18.294;2023-04-24T14:01:14;20.33;;;5.55;;
58681;SDS011;44460;40.162;18.294;2023-04-24T14:03:40;20.83;;;5.25;;
58681;SDS011;44460;40.162;18.294;2023-04-24T14:06:06;15.55;;;4.97;;
58681;SDS011;44460;40.162;18.294;2023-04-24T14:08:32;15.35;;;4.90;;
58681;SDS011;44460;40.162;18.294;2023-04-24T14:10:57;15.32;;;5.03;;
58681;SDS011;44460;40.162;18.294;2023-04-24T14:13:23;15.27;;;4.28;;
58681;SDS011;44460;40.162;18.294;2023-04-24T14:15:49;15.60;;;5.07;;
58681;SDS011;44460;40.162;18.294;2023-04-24T14:18:14;18.27;;;4.97;;
58681;SDS011;44460;40.162;18.294;2023-04-24T14:20:40;14.15;;;4.47;;
58681;SDS011;44460;40.162;18.294;2023-04-24T14:23:05;20.33;;;4.55;;
58681;SDS011;44460;40.162;18.294;2023-04-24T14:25:30;16.45;;;5.13;;
58681;SDS011;44460;40.162;18.294;2023-04-24T14:27:56;19.58;;;5.00;;
58681;SDS011;44460;40.162;18.294;2023-04-24T14:30:22;14.05;;;4.20;;
58681;SDS011;44460;40.162;18.294;2023-04-24T14:32:48;12.27;;;4.38;;
58681;SDS011;44460;40.162;18.294;2023-04-24T14:35:13;16.10;;;4.38;;